createdAt,value
2022-11-05T00:00:36.900Z,14.50
2022-11-05T00:03:22.476Z,14.50
2022-11-05T00:06:10.013Z,14.50
2022-11-05T00:08:57.126Z,14.40
2022-11-05T00:11:43.873Z,14.40
2022-11-05T00:14:36.882Z,14.40
2022-11-05T00:17:03.645Z,14.40
2022-11-05T00:19:30.357Z,14.30
2022-11-05T00:22:15.830Z,14.40
2022-11-05T00:25:01.361Z,14.30
2022-11-05T00:27:28.224Z,14.40
2022-11-05T00:29:54.917Z,14.30
2022-11-05T00:32:21.706Z,14.40
2022-11-05T00:34:48.417Z,14.30
2022-11-05T00:37:15.180Z,14.30
2022-11-05T00:39:41.974Z,14.30
2022-11-05T00:42:27.243Z,14.30
2022-11-05T00:45:03.174Z,14.30
2022-11-05T00:47:50.139Z,14.30
2022-11-05T00:50:17.557Z,14.30
2022-11-05T00:52:56.242Z,14.20
2022-11-05T00:55:37.996Z,14.20
2022-11-05T00:58:07.807Z,14.30
2022-11-05T01:00:36.822Z,14.20
2022-11-05T01:03:07.654Z,14.10
2022-11-05T01:05:38.513Z,14.20
2022-11-05T01:08:05.335Z,14.20
2022-11-05T01:10:32.168Z,14.20
2022-11-05T01:12:59.253Z,14.20
2022-11-05T01:15:26.146Z,14.20
2022-11-05T01:17:52.949Z,14.20
2022-11-05T01:20:19.936Z,14.10
2022-11-05T01:22:46.706Z,14.10
2022-11-05T01:25:13.662Z,14.20
2022-11-05T01:27:40.664Z,14.10
2022-11-05T01:30:08.981Z,14.10
2022-11-05T01:32:36.781Z,14.20
2022-11-05T01:35:09.164Z,14.10
2022-11-05T01:37:36.381Z,14.00
2022-11-05T01:40:04.119Z,14.00
2022-11-05T01:42:32.443Z,14.00
2022-11-05T01:45:00.610Z,14.00
2022-11-05T01:47:36.385Z,13.90
2022-11-05T01:50:15.274Z,14.00
2022-11-05T01:52:42.112Z,14.00
2022-11-05T01:55:10.073Z,13.90
2022-11-05T01:57:37.073Z,13.80
2022-11-05T02:00:04.904Z,13.90
2022-11-05T02:02:31.802Z,13.90
2022-11-05T02:05:02.166Z,13.90
2022-11-05T02:07:30.638Z,13.80
2022-11-05T02:10:13.983Z,13.90
2022-11-05T02:12:43.900Z,13.90
2022-11-05T02:15:13.194Z,13.80
2022-11-05T02:17:45.994Z,13.80
2022-11-05T02:20:35.277Z,13.80
2022-11-05T02:23:23.151Z,13.80
2022-11-05T02:26:11.945Z,13.80
2022-11-05T02:29:14.395Z,13.90
2022-11-05T02:32:02.738Z,13.70
2022-11-05T02:34:38.700Z,13.80
2022-11-05T02:37:25.185Z,13.80
2022-11-05T02:40:23.049Z,13.70
2022-11-05T02:43:03.098Z,13.60
2022-11-05T02:46:01.721Z,13.70
2022-11-05T02:48:52.204Z,13.60
2022-11-05T02:51:37.181Z,13.60
2022-11-05T02:54:06.756Z,13.60
2022-11-05T02:56:39.556Z,13.60
2022-11-05T02:59:06.480Z,13.50
2022-11-05T03:01:35.920Z,13.60
2022-11-05T03:04:06.296Z,13.60
2022-11-05T03:06:48.330Z,13.50
2022-11-05T03:09:44.927Z,13.50
2022-11-05T03:12:34.445Z,13.40
2022-11-05T03:15:27.604Z,13.40
2022-11-05T03:18:22.005Z,13.40
2022-11-05T03:21:05.586Z,13.40
2022-11-05T03:23:44.826Z,13.30
2022-11-05T03:26:31.901Z,13.40
2022-11-05T03:29:06.702Z,13.40
2022-11-05T03:31:37.028Z,13.30
2022-11-05T03:34:05.602Z,13.30
2022-11-05T03:36:41.432Z,13.30
2022-11-05T03:39:31.129Z,13.30
2022-11-05T03:41:59.049Z,13.30
2022-11-05T03:44:29.928Z,13.30
2022-11-05T03:47:04.345Z,13.30
2022-11-05T03:49:37.884Z,13.30
2022-11-05T03:52:17.946Z,13.30
2022-11-05T03:54:45.788Z,13.30
2022-11-05T03:57:26.061Z,13.40
2022-11-05T03:59:52.903Z,13.30
2022-11-05T04:02:22.807Z,13.30
2022-11-05T04:04:49.748Z,13.30
2022-11-05T04:07:34.918Z,13.30
2022-11-05T04:10:20.369Z,13.30
2022-11-05T04:13:05.708Z,13.30
2022-11-05T04:15:55.367Z,13.30
2022-11-05T04:18:22.578Z,13.30
2022-11-05T04:21:07.710Z,13.30
2022-11-05T04:23:53.173Z,13.30
2022-11-05T04:26:23.419Z,13.40
2022-11-05T04:29:09.753Z,13.50
2022-11-05T04:31:36.836Z,13.50
2022-11-05T04:34:03.750Z,13.60
2022-11-05T04:36:30.812Z,13.70
2022-11-05T04:38:57.553Z,13.70
2022-11-05T04:41:25.457Z,13.80
2022-11-05T04:43:52.402Z,13.80
2022-11-05T04:46:19.160Z,13.80
2022-11-05T04:48:45.953Z,13.90
2022-11-05T04:51:12.730Z,13.90
2022-11-05T04:53:39.508Z,13.90
2022-11-05T04:56:10.420Z,13.90
2022-11-05T04:58:41.722Z,14.00
2022-11-05T05:01:13.618Z,14.10
2022-11-05T05:03:40.491Z,14.10
2022-11-05T05:06:07.911Z,14.10
2022-11-05T05:08:35.227Z,14.10
2022-11-05T05:11:09.321Z,14.10
2022-11-05T05:13:36.252Z,14.20
2022-11-05T05:16:07.863Z,14.10
2022-11-05T05:18:35.316Z,14.10
2022-11-05T05:21:21.144Z,14.10
2022-11-05T05:23:48.513Z,14.00
2022-11-05T05:26:18.081Z,14.00
2022-11-05T05:28:44.903Z,14.00
2022-11-05T05:31:11.690Z,13.90
2022-11-05T05:33:38.405Z,13.90
2022-11-05T05:36:10.906Z,13.90
2022-11-05T05:38:38.241Z,13.90
2022-11-05T05:41:05.149Z,13.80
2022-11-05T05:43:34.826Z,13.90
2022-11-05T05:46:06.617Z,13.80
2022-11-05T05:48:33.985Z,13.90
2022-11-05T05:51:05.921Z,13.90
2022-11-05T05:53:33.307Z,14.00
2022-11-05T05:56:00.590Z,13.90
2022-11-05T05:58:34.989Z,14.00
2022-11-05T06:01:04.501Z,13.90
2022-11-05T06:03:31.559Z,13.90
2022-11-05T06:06:13.192Z,14.00
2022-11-05T06:08:40.600Z,14.10
2022-11-05T06:11:08.315Z,14.00
2022-11-05T06:13:35.958Z,14.10
2022-11-05T06:16:08.370Z,14.10
2022-11-05T06:18:36.001Z,14.20
2022-11-05T06:21:10.784Z,14.20
2022-11-05T06:23:39.218Z,14.30
2022-11-05T06:26:08.950Z,14.30
2022-11-05T06:28:36.060Z,14.40
2022-11-05T06:31:03.310Z,14.30
2022-11-05T06:33:30.519Z,14.40
2022-11-05T06:36:01.978Z,14.40
2022-11-05T06:38:31.517Z,14.50
2022-11-05T06:40:59.507Z,14.60
2022-11-05T06:43:27.372Z,14.60
2022-11-05T06:45:54.987Z,14.60
2022-11-05T06:48:21.769Z,14.60
2022-11-05T06:50:48.919Z,14.70
2022-11-05T06:53:15.662Z,14.70
2022-11-05T06:55:44.859Z,14.80
2022-11-05T06:58:11.844Z,14.90
2022-11-05T07:00:38.763Z,14.80
2022-11-05T07:03:07.274Z,14.90
2022-11-05T07:05:37.263Z,14.90
2022-11-05T07:08:04.282Z,15.00
2022-11-05T07:10:31.096Z,14.90
2022-11-05T07:12:58.026Z,15.20
2022-11-05T07:15:24.825Z,15.20
2022-11-05T07:17:57.518Z,15.20
2022-11-05T07:20:25.645Z,15.30
2022-11-05T07:23:06.611Z,15.40
2022-11-05T07:25:34.555Z,15.40
2022-11-05T07:28:01.848Z,15.40
2022-11-05T07:30:29.161Z,15.50
2022-11-05T07:32:56.348Z,15.40
2022-11-05T07:35:23.225Z,15.50
2022-11-05T07:37:51.529Z,15.60
2022-11-05T07:40:19.408Z,15.70
2022-11-05T07:42:51.388Z,15.80
2022-11-05T07:45:18.845Z,15.90
2022-11-05T07:47:47.104Z,15.90
2022-11-05T07:50:14.817Z,16.00
2022-11-05T07:52:41.822Z,16.00
2022-11-05T07:55:09.163Z,16.00
2022-11-05T07:57:49.163Z,16.10
2022-11-05T08:00:19.971Z,16.10
2022-11-05T08:03:08.842Z,16.10
2022-11-05T08:05:38.183Z,16.30
2022-11-05T08:08:07.052Z,16.40
2022-11-05T08:10:34.316Z,16.40
2022-11-05T08:13:02.537Z,16.50
2022-11-05T08:15:29.580Z,16.40
2022-11-05T08:18:08.892Z,16.40
2022-11-05T08:20:36.359Z,16.50
2022-11-05T08:23:03.317Z,16.50
2022-11-05T08:25:30.246Z,16.50
2022-11-05T08:27:58.932Z,16.50
2022-11-05T08:30:26.229Z,16.50
2022-11-05T08:33:01.309Z,16.50
2022-11-05T08:35:29.004Z,16.60
2022-11-05T08:38:00.698Z,16.50
2022-11-05T08:40:28.063Z,16.60
2022-11-05T08:42:58.129Z,16.60
2022-11-05T08:45:29.254Z,16.70
2022-11-05T08:48:07.720Z,16.80
2022-11-05T08:50:34.931Z,16.80
2022-11-05T08:53:02.046Z,16.70
2022-11-05T08:55:28.974Z,16.90
2022-11-05T08:58:00.513Z,17.00
2022-11-05T09:00:29.508Z,17.00
2022-11-05T09:03:00.239Z,17.00
2022-11-05T09:05:27.683Z,17.10
2022-11-05T09:08:00.819Z,17.10
2022-11-05T09:10:28.799Z,17.30
2022-11-05T09:12:55.785Z,17.20
2022-11-05T09:15:23.667Z,17.20
2022-11-05T09:17:50.907Z,17.10
2022-11-05T09:20:18.002Z,17.00
2022-11-05T09:22:46.666Z,17.00
2022-11-05T09:25:15.818Z,16.90
2022-11-05T09:27:43.197Z,17.10
2022-11-05T09:30:12.171Z,16.90
2022-11-05T09:32:38.983Z,16.90
2022-11-05T09:35:06.757Z,17.00
2022-11-05T09:37:33.648Z,16.90
2022-11-05T09:40:00.407Z,16.90
2022-11-05T09:42:39.615Z,17.00
2022-11-05T09:45:20.437Z,16.90
2022-11-05T09:47:55.628Z,16.80
2022-11-05T09:50:36.569Z,16.70
2022-11-05T09:53:04.594Z,16.60
2022-11-05T09:55:39.496Z,16.70
2022-11-05T09:58:40.955Z,16.70
2022-11-05T10:01:18.204Z,16.90
2022-11-05T10:03:49.486Z,16.90
2022-11-05T10:06:22.374Z,16.90
2022-11-05T10:09:03.717Z,17.00
2022-11-05T10:11:48.140Z,17.00
2022-11-05T10:14:29.248Z,16.90
2022-11-05T10:17:12.833Z,17.00
2022-11-05T10:19:51.700Z,16.90
2022-11-05T10:22:19.697Z,16.90
2022-11-05T10:24:49.242Z,16.90
2022-11-05T10:27:23.428Z,16.90
2022-11-05T10:29:50.956Z,17.00
2022-11-05T10:32:30.850Z,17.10
2022-11-05T10:35:01.331Z,17.20
2022-11-05T10:37:28.922Z,17.20
2022-11-05T10:39:56.169Z,17.20
2022-11-05T10:43:06.520Z,17.20
2022-11-05T10:45:54.700Z,17.20
2022-11-05T10:48:43.497Z,17.20
2022-11-05T10:51:11.656Z,17.20
2022-11-05T10:53:39.164Z,17.30
2022-11-05T10:56:33.372Z,17.40
2022-11-05T10:59:01.841Z,17.50
2022-11-05T11:01:29.698Z,17.40
2022-11-05T11:04:22.354Z,17.40
2022-11-05T11:06:55.189Z,17.60
2022-11-05T11:09:26.308Z,17.50
2022-11-05T11:12:07.387Z,17.70
2022-11-05T11:14:35.242Z,17.70
2022-11-05T11:17:28.706Z,17.70
2022-11-05T11:20:30.501Z,17.80
2022-11-05T11:23:13.984Z,17.80
2022-11-05T11:25:44.298Z,18.00
2022-11-05T11:28:21.160Z,18.00
2022-11-05T11:31:08.189Z,18.10
2022-11-05T11:33:36.630Z,18.20
2022-11-05T11:36:04.278Z,18.30
2022-11-05T11:38:33.847Z,18.40
2022-11-05T11:41:11.482Z,18.60
2022-11-05T11:43:41.222Z,18.70
2022-11-05T11:46:20.082Z,18.70
2022-11-05T11:48:48.606Z,18.70
2022-11-05T11:51:19.952Z,18.70
2022-11-05T11:53:49.965Z,18.80
2022-11-05T11:56:20.358Z,18.80
2022-11-05T11:58:55.285Z,18.90
2022-11-05T12:01:32.336Z,18.90
2022-11-05T12:04:10.957Z,18.90
2022-11-05T12:06:46.325Z,18.80
2022-11-05T12:09:18.066Z,18.90
2022-11-05T12:12:10.080Z,18.90
2022-11-05T12:15:01.393Z,18.80
2022-11-05T12:17:30.968Z,18.80
2022-11-05T12:20:18.442Z,18.80
2022-11-05T12:22:47.977Z,18.90
2022-11-05T12:25:29.040Z,18.70
2022-11-05T12:28:20.198Z,18.90
2022-11-05T12:31:22.362Z,18.80
2022-11-05T12:34:43.299Z,18.90
2022-11-05T12:37:20.177Z,18.80
2022-11-05T12:40:07.797Z,18.80
2022-11-05T12:42:50.773Z,18.80
2022-11-05T12:45:43.901Z,18.90
2022-11-05T12:48:36.765Z,18.90
2022-11-05T12:51:27.953Z,18.90
2022-11-05T12:54:25.065Z,18.90
2022-11-05T12:56:58.780Z,19.00
2022-11-05T12:59:41.647Z,18.90
2022-11-05T13:02:37.506Z,18.90
2022-11-05T13:05:13.769Z,18.90
2022-11-05T13:07:58.020Z,18.90
2022-11-05T13:10:32.678Z,19.00
2022-11-05T13:13:23.134Z,18.90
2022-11-05T13:15:55.238Z,19.00
2022-11-05T13:18:30.585Z,18.90
2022-11-05T13:21:02.133Z,19.00
2022-11-05T13:23:37.936Z,19.00
2022-11-05T13:26:19.742Z,19.00
2022-11-05T13:29:12.875Z,19.00
2022-11-05T13:31:45.622Z,19.00
2022-11-05T13:34:13.610Z,18.90
2022-11-05T13:37:13.825Z,19.00
2022-11-05T13:39:48.324Z,19.00
2022-11-05T13:42:40.001Z,19.00
2022-11-05T13:45:18.971Z,19.00
2022-11-05T13:48:00.114Z,19.00
2022-11-05T13:50:51.766Z,18.90
2022-11-05T13:53:30.566Z,18.90
2022-11-05T13:56:21.387Z,18.90
2022-11-05T13:59:12.597Z,18.80
2022-11-05T14:01:42.584Z,18.70
2022-11-05T14:04:24.575Z,18.80
2022-11-05T14:06:51.657Z,18.80
2022-11-05T14:09:27.249Z,18.80
2022-11-05T14:11:58.971Z,18.80
2022-11-05T14:14:31.540Z,18.70
2022-11-05T14:17:07.145Z,18.80
2022-11-05T14:19:49.029Z,18.70
2022-11-05T14:22:32.086Z,18.60
2022-11-05T14:25:17.258Z,18.60
2022-11-05T14:27:47.221Z,18.70
2022-11-05T14:30:48.127Z,18.50
2022-11-05T14:33:27.083Z,18.50
2022-11-05T14:36:22.483Z,18.50
2022-11-05T14:39:00.039Z,18.50
2022-11-05T14:41:29.970Z,18.40
2022-11-05T14:44:01.500Z,18.50
2022-11-05T14:46:47.983Z,18.40
2022-11-05T14:49:35.902Z,18.50
2022-11-05T14:52:09.281Z,18.30
2022-11-05T14:54:49.584Z,18.30
2022-11-05T14:57:42.063Z,18.30
2022-11-05T15:00:31.201Z,18.20
2022-11-05T15:03:05.377Z,18.20
2022-11-05T15:05:33.295Z,18.20
2022-11-05T15:08:20.619Z,18.20
2022-11-05T15:10:49.156Z,18.10
2022-11-05T15:13:31.750Z,18.10
2022-11-05T15:15:59.717Z,18.00
2022-11-05T15:18:44.671Z,18.00
2022-11-05T15:21:15.342Z,17.90
2022-11-05T15:23:45.669Z,17.80
2022-11-05T15:26:21.427Z,17.80
2022-11-05T15:28:50.723Z,17.70
2022-11-05T15:31:36.273Z,17.70
2022-11-05T15:34:20.586Z,17.60
2022-11-05T15:36:57.656Z,17.60
2022-11-05T15:39:32.179Z,17.60
2022-11-05T15:42:02.796Z,17.40
2022-11-05T15:44:39.226Z,17.40
2022-11-05T15:47:17.909Z,17.40
2022-11-05T15:50:14.024Z,17.30
2022-11-05T15:52:53.266Z,17.30
2022-11-05T15:55:25.243Z,17.20
2022-11-05T15:58:01.024Z,17.20
2022-11-05T16:00:30.810Z,17.10
2022-11-05T16:03:06.604Z,17.20
2022-11-05T16:05:43.899Z,17.10
2022-11-05T16:08:23.316Z,17.00
2022-11-05T16:10:52.876Z,17.00
2022-11-05T16:13:32.155Z,17.00
2022-11-05T16:16:02.485Z,17.00
2022-11-05T16:18:34.786Z,16.90
2022-11-05T16:21:07.177Z,16.90
2022-11-05T16:23:55.367Z,16.90
2022-11-05T16:27:01.380Z,16.80
2022-11-05T16:29:46.744Z,16.80
2022-11-05T16:32:28.515Z,16.80
2022-11-05T16:35:00.858Z,16.80
2022-11-05T16:37:29.831Z,16.70
2022-11-05T16:39:56.664Z,16.60
2022-11-05T16:42:23.410Z,16.70
2022-11-05T16:44:51.706Z,16.60
2022-11-05T16:47:19.621Z,16.50
2022-11-05T16:49:48.453Z,16.60
2022-11-05T16:52:15.562Z,16.50
2022-11-05T16:54:42.648Z,16.50
2022-11-05T16:57:23.334Z,16.40
2022-11-05T16:59:50.219Z,16.50
2022-11-05T17:02:17.272Z,16.40
2022-11-05T17:04:44.296Z,16.40
2022-11-05T17:07:11.110Z,16.40
2022-11-05T17:09:37.962Z,16.40
2022-11-05T17:12:05.035Z,16.30
2022-11-05T17:14:31.784Z,16.30
2022-11-05T17:17:01.165Z,16.30
2022-11-05T17:19:28.299Z,16.20
2022-11-05T17:21:55.278Z,16.30
2022-11-05T17:24:22.186Z,16.30
2022-11-05T17:26:48.968Z,16.20
2022-11-05T17:29:15.846Z,16.20
2022-11-05T17:31:42.735Z,16.20
2022-11-05T17:34:10.351Z,16.20
2022-11-05T17:36:37.128Z,16.20
2022-11-05T17:39:04.318Z,16.20
2022-11-05T17:41:31.081Z,16.20
2022-11-05T17:43:58.294Z,16.10
2022-11-05T17:46:25.579Z,16.10
2022-11-05T17:48:52.382Z,16.10
2022-11-05T17:51:20.337Z,16.10
2022-11-05T17:53:49.022Z,16.00
2022-11-05T17:56:28.876Z,15.90
2022-11-05T17:59:01.196Z,15.90
2022-11-05T18:01:33.898Z,15.90
2022-11-05T18:04:07.204Z,15.90
2022-11-05T18:06:36.714Z,15.80
2022-11-05T18:09:05.323Z,15.80
2022-11-05T18:11:32.433Z,15.90
2022-11-05T18:13:59.475Z,15.90
2022-11-05T18:16:26.575Z,15.80
2022-11-05T18:18:53.415Z,15.80
2022-11-05T18:21:20.345Z,15.80
2022-11-05T18:23:47.120Z,15.80
2022-11-05T18:26:16.012Z,15.70
2022-11-05T18:28:43.686Z,15.70
2022-11-05T18:31:20.580Z,15.70
2022-11-05T18:33:49.219Z,15.60
2022-11-05T18:36:43.517Z,15.60
2022-11-05T18:39:12.030Z,15.50
2022-11-05T18:41:39.104Z,15.40
2022-11-05T18:44:06.415Z,15.40
2022-11-05T18:46:57.159Z,15.40
2022-11-05T18:49:21.114Z,15.40
2022-11-05T18:51:48.175Z,15.30
2022-11-05T18:54:15.157Z,15.20
2022-11-05T18:56:45.491Z,15.30
2022-11-05T19:02:06.922Z,15.20
2022-11-05T19:04:36.238Z,15.20
2022-11-05T19:07:05.399Z,15.10
2022-11-05T19:09:37.287Z,15.00
2022-11-05T19:12:04.974Z,15.10
2022-11-05T19:14:31.907Z,15.10
2022-11-05T19:16:59.517Z,15.00
2022-11-05T19:19:26.377Z,15.00
2022-11-05T19:21:53.170Z,15.00
2022-11-05T19:24:20.218Z,15.00
2022-11-05T19:26:47.572Z,14.90
2022-11-05T19:29:14.474Z,14.90
2022-11-05T19:31:41.447Z,14.90
2022-11-05T19:34:08.333Z,14.80
2022-11-05T19:36:35.237Z,14.90
2022-11-05T19:39:06.416Z,14.80
2022-11-05T19:41:33.575Z,14.90
2022-11-05T19:44:01.953Z,14.70
2022-11-05T19:46:29.729Z,14.80
2022-11-05T19:48:56.741Z,14.70
2022-11-05T19:51:25.981Z,14.70
2022-11-05T19:53:53.593Z,14.70
2022-11-05T19:56:25.949Z,14.70
2022-11-05T19:58:53.675Z,14.70
2022-11-05T20:01:22.294Z,14.60
2022-11-05T20:03:49.869Z,14.60
2022-11-05T20:06:20.593Z,14.60
2022-11-05T20:09:19.503Z,14.60
2022-11-05T20:11:40.005Z,14.50
2022-11-05T20:14:08.213Z,14.50
2022-11-05T20:16:40.038Z,14.60
2022-11-05T20:19:09.627Z,14.50
2022-11-05T20:21:37.157Z,14.50
2022-11-05T20:24:04.455Z,14.50
2022-11-05T20:26:31.848Z,14.60
2022-11-05T20:28:58.637Z,14.70
2022-11-05T20:31:25.695Z,14.60
2022-11-05T20:33:53.411Z,14.50
2022-11-05T20:36:22.925Z,14.60
2022-11-05T20:38:56.590Z,14.60
2022-11-05T20:41:24.414Z,14.50
2022-11-05T20:43:51.606Z,14.50
2022-11-05T20:46:20.338Z,14.40
2022-11-05T20:48:47.713Z,14.50
2022-11-05T20:51:22.930Z,14.40
2022-11-05T20:53:53.488Z,14.50
2022-11-05T20:56:22.889Z,14.40
2022-11-05T20:58:50.479Z,14.40
2022-11-05T21:01:18.414Z,14.30
2022-11-05T21:03:46.863Z,14.30
2022-11-05T21:06:14.392Z,14.30
2022-11-05T21:08:41.494Z,14.30
2022-11-05T21:11:09.187Z,14.20
2022-11-05T21:13:36.481Z,14.10
2022-11-05T21:16:07.776Z,14.20
2022-11-05T21:18:37.329Z,14.10
2022-11-05T21:21:08.727Z,14.10
2022-11-05T21:23:35.784Z,14.10
2022-11-05T21:26:06.813Z,14.10
2022-11-05T21:28:34.242Z,14.10
2022-11-05T21:31:02.747Z,14.10
2022-11-05T21:33:30.114Z,14.00
2022-11-05T21:35:57.284Z,14.00
2022-11-05T21:38:24.168Z,13.90
2022-11-05T21:40:50.981Z,13.90
2022-11-05T21:43:17.963Z,13.90
2022-11-05T21:45:45.431Z,13.90
2022-11-05T21:48:15.102Z,13.80
2022-11-05T21:51:01.337Z,13.80
2022-11-05T21:53:46.929Z,13.80
2022-11-05T21:56:40.148Z,13.80
2022-11-05T21:59:32.756Z,13.70
2022-11-05T22:02:02.828Z,13.70
2022-11-05T22:04:31.313Z,13.60
2022-11-05T22:06:58.237Z,13.60
2022-11-05T22:09:25.437Z,13.60
2022-11-05T22:11:52.965Z,13.60
2022-11-05T22:14:20.123Z,13.50
2022-11-05T22:16:47.211Z,13.50
2022-11-05T22:19:17.346Z,13.50
2022-11-05T22:21:44.171Z,13.40
2022-11-05T22:24:11.328Z,13.50
2022-11-05T22:26:38.999Z,13.40
2022-11-05T22:29:06.906Z,13.40
2022-11-05T22:31:36.510Z,13.40
2022-11-05T22:34:05.346Z,13.30
2022-11-05T22:36:35.561Z,13.40
2022-11-05T22:39:03.581Z,13.30
2022-11-05T22:41:30.509Z,13.30
2022-11-05T22:43:57.786Z,13.30
2022-11-05T22:46:26.370Z,13.30
2022-11-05T22:48:53.560Z,13.30
2022-11-05T22:51:26.375Z,13.30
2022-11-05T22:53:54.837Z,13.20
2022-11-05T22:56:23.951Z,13.20
2022-11-05T22:58:51.886Z,13.20
2022-11-05T23:01:19.754Z,13.20
2022-11-05T23:03:48.102Z,13.10
2022-11-05T23:06:36.696Z,13.10
2022-11-05T23:09:25.594Z,13.10
2022-11-05T23:11:53.710Z,13.10
2022-11-05T23:14:20.784Z,13.00
2022-11-05T23:17:06.180Z,13.00
2022-11-05T23:19:51.565Z,12.90
2022-11-05T23:22:40.077Z,12.90
2022-11-05T23:25:09.840Z,13.00
2022-11-05T23:27:46.555Z,12.90
2022-11-05T23:30:16.224Z,12.80
2022-11-05T23:32:43.400Z,12.90
2022-11-05T23:35:10.348Z,12.80
2022-11-05T23:37:55.772Z,12.80
2022-11-05T23:40:31.350Z,12.80
2022-11-05T23:43:16.749Z,12.70
2022-11-05T23:45:59.301Z,12.70
2022-11-05T23:48:35.317Z,12.80
2022-11-05T23:51:07.754Z,12.80
2022-11-05T23:53:36.934Z,12.70
2022-11-05T23:56:12.914Z,12.70
2022-11-05T23:58:41.113Z,12.70
